sensor_id;sensor_type;location;lat;lon;timestamp;P1;durP1;ratioP1;P2;durP2;ratioP2
11319;SDS011;5715;48.234;14.320;2022-07-23T00:01:20;7.45;;;6.95;;
11319;SDS011;5715;48.234;14.320;2022-07-23T00:04:13;9.60;;;7.95;;
11319;SDS011;5715;48.234;14.320;2022-07-23T00:07:00;7.70;;;7.03;;
11319;SDS011;5715;48.234;14.320;2022-07-23T00:09:48;7.82;;;7.10;;
11319;SDS011;5715;48.234;14.320;2022-07-23T00:12:36;7.93;;;7.22;;
11319;SDS011;5715;48.234;14.320;2022-07-23T00:15:37;7.68;;;6.97;;
11319;SDS011;5715;48.234;14.320;2022-07-23T00:18:25;8.43;;;6.97;;
11319;SDS011;5715;48.234;14.320;2022-07-23T00:21:13;7.70;;;6.95;;
11319;SDS011;5715;48.234;14.320;2022-07-23T00:24:00;6.57;;;6.07;;
11319;SDS011;5715;48.234;14.320;2022-07-23T00:26:48;7.45;;;6.75;;
11319;SDS011;5715;48.234;14.320;2022-07-23T00:29:36;7.75;;;7.03;;
11319;SDS011;5715;48.234;14.320;2022-07-23T00:32:23;6.70;;;6.10;;
11319;SDS011;5715;48.234;14.320;2022-07-23T00:35:32;6.97;;;6.38;;
11319;SDS011;5715;48.234;14.320;2022-07-23T00:38:22;7.63;;;6.60;;
11319;SDS011;5715;48.234;14.320;2022-07-23T00:41:10;8.10;;;7.32;;
11319;SDS011;5715;48.234;14.320;2022-07-23T00:44:13;6.82;;;6.22;;
11319;SDS011;5715;48.234;14.320;2022-07-23T00:47:09;7.35;;;6.82;;
11319;SDS011;5715;48.234;14.320;2022-07-23T00:49:57;10.32;;;6.93;;
11319;SDS011;5715;48.234;14.320;2022-07-23T00:52:44;8.10;;;7.45;;
11319;SDS011;5715;48.234;14.320;2022-07-23T00:55:33;9.02;;;7.38;;
11319;SDS011;5715;48.234;14.320;2022-07-23T00:58:21;7.90;;;7.30;;
11319;SDS011;5715;48.234;14.320;2022-07-23T01:01:09;8.55;;;7.72;;
11319;SDS011;5715;48.234;14.320;2022-07-23T01:03:58;8.02;;;7.32;;
11319;SDS011;5715;48.234;14.320;2022-07-23T01:06:46;7.60;;;7.00;;
11319;SDS011;5715;48.234;14.320;2022-07-23T01:09:33;8.15;;;7.45;;
11319;SDS011;5715;48.234;14.320;2022-07-23T01:12:21;8.02;;;7.28;;
11319;SDS011;5715;48.234;14.320;2022-07-23T01:15:09;9.18;;;6.32;;
11319;SDS011;5715;48.234;14.320;2022-07-23T01:17:56;7.85;;;6.65;;
11319;SDS011;5715;48.234;14.320;2022-07-23T01:20:44;6.70;;;6.20;;
11319;SDS011;5715;48.234;14.320;2022-07-23T01:23:32;6.88;;;6.38;;
11319;SDS011;5715;48.234;14.320;2022-07-23T01:26:20;7.47;;;6.68;;
11319;SDS011;5715;48.234;14.320;2022-07-23T01:29:07;7.35;;;6.75;;
11319;SDS011;5715;48.234;14.320;2022-07-23T01:31:55;6.35;;;5.75;;
11319;SDS011;5715;48.234;14.320;2022-07-23T01:34:42;7.65;;;6.90;;
11319;SDS011;5715;48.234;14.320;2022-07-23T01:37:30;6.15;;;5.60;;
11319;SDS011;5715;48.234;14.320;2022-07-23T01:40:18;7.13;;;6.43;;
11319;SDS011;5715;48.234;14.320;2022-07-23T01:43:07;6.22;;;5.72;;
11319;SDS011;5715;48.234;14.320;2022-07-23T01:45:57;6.43;;;5.82;;
11319;SDS011;5715;48.234;14.320;2022-07-23T01:48:44;6.03;;;5.50;;
11319;SDS011;5715;48.234;14.320;2022-07-23T01:51:32;7.03;;;6.32;;
11319;SDS011;5715;48.234;14.320;2022-07-23T01:54:19;7.30;;;6.70;;
11319;SDS011;5715;48.234;14.320;2022-07-23T01:57:07;6.47;;;5.88;;
11319;SDS011;5715;48.234;14.320;2022-07-23T01:59:55;7.78;;;6.97;;
11319;SDS011;5715;48.234;14.320;2022-07-23T02:02:43;6.97;;;6.32;;
11319;SDS011;5715;48.234;14.320;2022-07-23T02:05:30;6.10;;;5.53;;
11319;SDS011;5715;48.234;14.320;2022-07-23T02:08:18;7.22;;;6.53;;
11319;SDS011;5715;48.234;14.320;2022-07-23T02:11:06;6.60;;;6.05;;
11319;SDS011;5715;48.234;14.320;2022-07-23T02:13:54;6.50;;;5.72;;
11319;SDS011;5715;48.234;14.320;2022-07-23T02:16:41;8.45;;;7.30;;
11319;SDS011;5715;48.234;14.320;2022-07-23T02:19:29;7.53;;;6.80;;
11319;SDS011;5715;48.234;14.320;2022-07-23T02:22:16;6.57;;;5.97;;
11319;SDS011;5715;48.234;14.320;2022-07-23T02:25:04;6.78;;;5.93;;
11319;SDS011;5715;48.234;14.320;2022-07-23T02:27:54;6.38;;;5.78;;
11319;SDS011;5715;48.234;14.320;2022-07-23T02:30:41;5.95;;;5.43;;
11319;SDS011;5715;48.234;14.320;2022-07-23T02:33:29;6.03;;;5.35;;
11319;SDS011;5715;48.234;14.320;2022-07-23T02:36:17;6.80;;;5.75;;
11319;SDS011;5715;48.234;14.320;2022-07-23T02:39:04;7.78;;;5.60;;
11319;SDS011;5715;48.234;14.320;2022-07-23T02:41:52;6.55;;;6.03;;
11319;SDS011;5715;48.234;14.320;2022-07-23T02:44:39;6.68;;;6.07;;
11319;SDS011;5715;48.234;14.320;2022-07-23T02:47:27;6.35;;;5.75;;
11319;SDS011;5715;48.234;14.320;2022-07-23T02:50:15;6.20;;;5.68;;
11319;SDS011;5715;48.234;14.320;2022-07-23T02:53:02;6.72;;;6.07;;
11319;SDS011;5715;48.234;14.320;2022-07-23T02:55:50;7.97;;;7.32;;
11319;SDS011;5715;48.234;14.320;2022-07-23T02:58:38;6.43;;;5.82;;
11319;SDS011;5715;48.234;14.320;2022-07-23T03:01:26;8.52;;;6.65;;
11319;SDS011;5715;48.234;14.320;2022-07-23T03:04:13;6.95;;;6.45;;
11319;SDS011;5715;48.234;14.320;2022-07-23T03:07:01;6.03;;;5.53;;
11319;SDS011;5715;48.234;14.320;2022-07-23T03:09:49;6.93;;;6.22;;
11319;SDS011;5715;48.234;14.320;2022-07-23T03:12:36;6.28;;;5.78;;
11319;SDS011;5715;48.234;14.320;2022-07-23T03:15:24;6.97;;;6.20;;
11319;SDS011;5715;48.234;14.320;2022-07-23T03:18:11;6.63;;;6.03;;
11319;SDS011;5715;48.234;14.320;2022-07-23T03:20:59;6.25;;;5.65;;
11319;SDS011;5715;48.234;14.320;2022-07-23T03:23:47;6.65;;;5.97;;
11319;SDS011;5715;48.234;14.320;2022-07-23T03:26:35;6.88;;;6.28;;
11319;SDS011;5715;48.234;14.320;2022-07-23T03:29:23;6.25;;;5.75;;
11319;SDS011;5715;48.234;14.320;2022-07-23T03:32:11;7.95;;;7.13;;
11319;SDS011;5715;48.234;14.320;2022-07-23T03:34:59;6.75;;;6.20;;
11319;SDS011;5715;48.234;14.320;2022-07-23T03:37:46;5.65;;;5.15;;
11319;SDS011;5715;48.234;14.320;2022-07-23T03:40:34;6.10;;;5.60;;
11319;SDS011;5715;48.234;14.320;2022-07-23T03:43:21;7.88;;;7.28;;
11319;SDS011;5715;48.234;14.320;2022-07-23T03:46:12;5.90;;;5.32;;
11319;SDS011;5715;48.234;14.320;2022-07-23T03:49:00;5.95;;;5.50;;
11319;SDS011;5715;48.234;14.320;2022-07-23T03:51:48;8.15;;;6.25;;
11319;SDS011;5715;48.234;14.320;2022-07-23T03:54:35;5.57;;;5.07;;
11319;SDS011;5715;48.234;14.320;2022-07-23T03:57:23;6.10;;;5.60;;
11319;SDS011;5715;48.234;14.320;2022-07-23T04:00:10;6.95;;;6.25;;
11319;SDS011;5715;48.234;14.320;2022-07-23T04:02:59;5.95;;;5.45;;
11319;SDS011;5715;48.234;14.320;2022-07-23T04:05:47;6.07;;;5.57;;
11319;SDS011;5715;48.234;14.320;2022-07-23T04:08:35;6.25;;;5.65;;
11319;SDS011;5715;48.234;14.320;2022-07-23T04:11:22;4.32;;;4.03;;
11319;SDS011;5715;48.234;14.320;2022-07-23T04:14:10;4.47;;;4.07;;
11319;SDS011;5715;48.234;14.320;2022-07-23T04:16:57;5.80;;;5.28;;
11319;SDS011;5715;48.234;14.320;2022-07-23T04:19:45;3.88;;;3.58;;
11319;SDS011;5715;48.234;14.320;2022-07-23T04:22:33;3.55;;;3.30;;
11319;SDS011;5715;48.234;14.320;2022-07-23T04:25:21;3.88;;;3.58;;
11319;SDS011;5715;48.234;14.320;2022-07-23T04:28:08;4.85;;;4.45;;
11319;SDS011;5715;48.234;14.320;2022-07-23T04:30:56;5.70;;;5.32;;
11319;SDS011;5715;48.234;14.320;2022-07-23T04:33:44;5.45;;;4.88;;
11319;SDS011;5715;48.234;14.320;2022-07-23T04:36:32;3.80;;;3.47;;
11319;SDS011;5715;48.234;14.320;2022-07-23T04:39:19;5.80;;;3.28;;
11319;SDS011;5715;48.234;14.320;2022-07-23T04:42:07;4.68;;;4.28;;
11319;SDS011;5715;48.234;14.320;2022-07-23T04:44:54;5.00;;;3.97;;
11319;SDS011;5715;48.234;14.320;2022-07-23T04:47:42;3.78;;;3.47;;
11319;SDS011;5715;48.234;14.320;2022-07-23T04:50:30;4.18;;;3.78;;
11319;SDS011;5715;48.234;14.320;2022-07-23T04:53:17;3.85;;;3.55;;
11319;SDS011;5715;48.234;14.320;2022-07-23T04:56:06;3.20;;;3.00;;
11319;SDS011;5715;48.234;14.320;2022-07-23T04:58:54;4.63;;;2.80;;
11319;SDS011;5715;48.234;14.320;2022-07-23T05:01:42;3.20;;;3.00;;
11319;SDS011;5715;48.234;14.320;2022-07-23T05:04:29;2.70;;;2.50;;
11319;SDS011;5715;48.234;14.320;2022-07-23T05:07:18;2.70;;;2.50;;
11319;SDS011;5715;48.234;14.320;2022-07-23T05:10:05;2.55;;;2.35;;
11319;SDS011;5715;48.234;14.320;2022-07-23T05:12:53;2.70;;;2.50;;
11319;SDS011;5715;48.234;14.320;2022-07-23T05:15:41;3.05;;;2.80;;
11319;SDS011;5715;48.234;14.320;2022-07-23T05:18:30;3.78;;;3.20;;
11319;SDS011;5715;48.234;14.320;2022-07-23T05:21:17;3.78;;;2.92;;
11319;SDS011;5715;48.234;14.320;2022-07-23T05:24:05;3.00;;;2.80;;
11319;SDS011;5715;48.234;14.320;2022-07-23T05:26:53;7.03;;;3.22;;
11319;SDS011;5715;48.234;14.320;2022-07-23T05:29:40;3.42;;;3.10;;
11319;SDS011;5715;48.234;14.320;2022-07-23T05:32:28;4.22;;;3.00;;
11319;SDS011;5715;48.234;14.320;2022-07-23T05:35:18;3.10;;;2.80;;
11319;SDS011;5715;48.234;14.320;2022-07-23T05:38:06;5.20;;;3.35;;
11319;SDS011;5715;48.234;14.320;2022-07-23T05:40:54;3.13;;;2.83;;
11319;SDS011;5715;48.234;14.320;2022-07-23T05:43:41;3.55;;;3.25;;
11319;SDS011;5715;48.234;14.320;2022-07-23T05:46:29;3.10;;;2.90;;
11319;SDS011;5715;48.234;14.320;2022-07-23T05:49:16;4.10;;;3.22;;
11319;SDS011;5715;48.234;14.320;2022-07-23T05:52:05;3.50;;;2.67;;
11319;SDS011;5715;48.234;14.320;2022-07-23T05:54:53;2.97;;;2.70;;
11319;SDS011;5715;48.234;14.320;2022-07-23T05:57:41;4.13;;;3.03;;
11319;SDS011;5715;48.234;14.320;2022-07-23T06:00:29;4.22;;;2.55;;
11319;SDS011;5715;48.234;14.320;2022-07-23T06:03:17;2.97;;;2.65;;
11319;SDS011;5715;48.234;14.320;2022-07-23T06:06:05;3.00;;;2.80;;
11319;SDS011;5715;48.234;14.320;2022-07-23T06:08:53;3.10;;;2.80;;
11319;SDS011;5715;48.234;14.320;2022-07-23T06:11:41;3.92;;;2.75;;
11319;SDS011;5715;48.234;14.320;2022-07-23T06:14:28;3.75;;;3.10;;
11319;SDS011;5715;48.234;14.320;2022-07-23T06:17:16;9.75;;;3.10;;
11319;SDS011;5715;48.234;14.320;2022-07-23T06:20:04;3.22;;;2.85;;
11319;SDS011;5715;48.234;14.320;2022-07-23T06:22:56;7.38;;;3.13;;
11319;SDS011;5715;48.234;14.320;2022-07-23T06:25:43;2.97;;;2.78;;
11319;SDS011;5715;48.234;14.320;2022-07-23T06:28:31;2.83;;;2.63;;
11319;SDS011;5715;48.234;14.320;2022-07-23T06:31:18;3.15;;;2.95;;
11319;SDS011;5715;48.234;14.320;2022-07-23T06:34:06;3.97;;;3.00;;
11319;SDS011;5715;48.234;14.320;2022-07-23T06:36:54;3.30;;;2.80;;
11319;SDS011;5715;48.234;14.320;2022-07-23T06:39:41;3.47;;;2.97;;
11319;SDS011;5715;48.234;14.320;2022-07-23T06:42:29;3.40;;;3.10;;
11319;SDS011;5715;48.234;14.320;2022-07-23T06:45:17;5.65;;;2.85;;
11319;SDS011;5715;48.234;14.320;2022-07-23T06:48:05;5.82;;;2.80;;
11319;SDS011;5715;48.234;14.320;2022-07-23T06:50:52;3.47;;;3.13;;
11319;SDS011;5715;48.234;14.320;2022-07-23T06:53:41;3.50;;;3.20;;
11319;SDS011;5715;48.234;14.320;2022-07-23T06:56:29;3.22;;;3.00;;
11319;SDS011;5715;48.234;14.320;2022-07-23T06:59:16;2.88;;;2.58;;
11319;SDS011;5715;48.234;14.320;2022-07-23T07:02:04;8.35;;;3.05;;
11319;SDS011;5715;48.234;14.320;2022-07-23T07:04:51;4.55;;;3.15;;
11319;SDS011;5715;48.234;14.320;2022-07-23T07:07:39;2.88;;;2.67;;
11319;SDS011;5715;48.234;14.320;2022-07-23T07:10:27;3.22;;;2.90;;
11319;SDS011;5715;48.234;14.320;2022-07-23T07:13:15;3.10;;;2.90;;
11319;SDS011;5715;48.234;14.320;2022-07-23T07:16:02;3.85;;;3.30;;
11319;SDS011;5715;48.234;14.320;2022-07-23T07:18:51;3.45;;;3.15;;
11319;SDS011;5715;48.234;14.320;2022-07-23T07:21:38;3.10;;;2.80;;
11319;SDS011;5715;48.234;14.320;2022-07-23T07:24:26;3.10;;;2.80;;
11319;SDS011;5715;48.234;14.320;2022-07-23T07:27:20;3.55;;;3.25;;
11319;SDS011;5715;48.234;14.320;2022-07-23T07:30:07;3.45;;;3.15;;
11319;SDS011;5715;48.234;14.320;2022-07-23T07:32:56;5.10;;;3.28;;
11319;SDS011;5715;48.234;14.320;2022-07-23T07:35:44;3.58;;;3.28;;
11319;SDS011;5715;48.234;14.320;2022-07-23T07:38:31;3.55;;;3.15;;
11319;SDS011;5715;48.234;14.320;2022-07-23T07:41:19;3.83;;;3.17;;
11319;SDS011;5715;48.234;14.320;2022-07-23T07:44:10;3.92;;;3.53;;
11319;SDS011;5715;48.234;14.320;2022-07-23T07:46:58;4.97;;;3.25;;
11319;SDS011;5715;48.234;14.320;2022-07-23T07:49:45;3.40;;;3.10;;
11319;SDS011;5715;48.234;14.320;2022-07-23T07:52:33;13.35;;;3.22;;
11319;SDS011;5715;48.234;14.320;2022-07-23T07:55:25;3.72;;;2.63;;
11319;SDS011;5715;48.234;14.320;2022-07-23T07:58:13;4.13;;;3.20;;
11319;SDS011;5715;48.234;14.320;2022-07-23T08:01:01;3.65;;;3.33;;
11319;SDS011;5715;48.234;14.320;2022-07-23T08:03:49;3.38;;;3.05;;
11319;SDS011;5715;48.234;14.320;2022-07-23T08:06:37;3.03;;;2.80;;
11319;SDS011;5715;48.234;14.320;2022-07-23T08:09:24;2.92;;;2.63;;
11319;SDS011;5715;48.234;14.320;2022-07-23T08:12:12;5.78;;;3.38;;
11319;SDS011;5715;48.234;14.320;2022-07-23T08:15:00;2.47;;;2.28;;
11319;SDS011;5715;48.234;14.320;2022-07-23T08:17:48;2.70;;;2.50;;
11319;SDS011;5715;48.234;14.320;2022-07-23T08:20:36;3.00;;;2.67;;
11319;SDS011;5715;48.234;14.320;2022-07-23T08:23:24;3.40;;;2.70;;
11319;SDS011;5715;48.234;14.320;2022-07-23T08:26:16;3.25;;;2.60;;
11319;SDS011;5715;48.234;14.320;2022-07-23T08:29:03;3.42;;;3.00;;
11319;SDS011;5715;48.234;14.320;2022-07-23T08:31:51;3.70;;;2.88;;
11319;SDS011;5715;48.234;14.320;2022-07-23T08:34:38;3.20;;;2.90;;
11319;SDS011;5715;48.234;14.320;2022-07-23T08:37:30;3.42;;;3.13;;
11319;SDS011;5715;48.234;14.320;2022-07-23T08:40:18;3.22;;;2.50;;
11319;SDS011;5715;48.234;14.320;2022-07-23T08:43:08;3.08;;;2.78;;
11319;SDS011;5715;48.234;14.320;2022-07-23T08:45:59;3.50;;;3.20;;
11319;SDS011;5715;48.234;14.320;2022-07-23T08:48:49;5.72;;;2.97;;
11319;SDS011;5715;48.234;14.320;2022-07-23T08:51:38;2.55;;;2.35;;
11319;SDS011;5715;48.234;14.320;2022-07-23T08:54:26;3.30;;;3.00;;
11319;SDS011;5715;48.234;14.320;2022-07-23T08:57:14;3.47;;;2.60;;
11319;SDS011;5715;48.234;14.320;2022-07-23T09:00:03;3.17;;;2.88;;
11319;SDS011;5715;48.234;14.320;2022-07-23T09:02:53;3.42;;;3.10;;
11319;SDS011;5715;48.234;14.320;2022-07-23T09:05:41;3.08;;;2.70;;
11319;SDS011;5715;48.234;14.320;2022-07-23T09:08:36;3.85;;;2.92;;
11319;SDS011;5715;48.234;14.320;2022-07-23T09:11:29;3.13;;;2.90;;
11319;SDS011;5715;48.234;14.320;2022-07-23T09:14:17;3.70;;;2.80;;
11319;SDS011;5715;48.234;14.320;2022-07-23T09:17:52;3.00;;;2.78;;
11319;SDS011;5715;48.234;14.320;2022-07-23T09:20:39;3.30;;;3.00;;
11319;SDS011;5715;48.234;14.320;2022-07-23T09:23:44;3.33;;;2.83;;
11319;SDS011;5715;48.234;14.320;2022-07-23T09:26:54;4.03;;;3.10;;
11319;SDS011;5715;48.234;14.320;2022-07-23T09:29:42;3.53;;;3.22;;
11319;SDS011;5715;48.234;14.320;2022-07-23T09:32:43;2.97;;;2.78;;
11319;SDS011;5715;48.234;14.320;2022-07-23T09:38:49;5.43;;;2.53;;
11319;SDS011;5715;48.234;14.320;2022-07-23T09:41:44;6.00;;;2.70;;
11319;SDS011;5715;48.234;14.320;2022-07-23T09:44:34;3.00;;;2.70;;
11319;SDS011;5715;48.234;14.320;2022-07-23T09:47:36;2.97;;;2.70;;
11319;SDS011;5715;48.234;14.320;2022-07-23T09:50:24;3.25;;;2.92;;
11319;SDS011;5715;48.234;14.320;2022-07-23T09:53:25;3.50;;;2.97;;
11319;SDS011;5715;48.234;14.320;2022-07-23T09:56:13;3.03;;;2.83;;
11319;SDS011;5715;48.234;14.320;2022-07-23T09:59:02;2.92;;;2.63;;
11319;SDS011;5715;48.234;14.320;2022-07-23T10:01:59;3.22;;;2.63;;
11319;SDS011;5715;48.234;14.320;2022-07-23T10:04:47;2.67;;;2.47;;
11319;SDS011;5715;48.234;14.320;2022-07-23T10:07:39;3.00;;;2.72;;
11319;SDS011;5715;48.234;14.320;2022-07-23T10:10:28;2.88;;;2.67;;
11319;SDS011;5715;48.234;14.320;2022-07-23T10:13:18;3.40;;;3.10;;
11319;SDS011;5715;48.234;14.320;2022-07-23T10:16:32;3.75;;;3.08;;
11319;SDS011;5715;48.234;14.320;2022-07-23T10:19:20;3.00;;;2.75;;
11319;SDS011;5715;48.234;14.320;2022-07-23T10:22:10;3.20;;;2.90;;
11319;SDS011;5715;48.234;14.320;2022-07-23T10:25:18;2.60;;;2.40;;
11319;SDS011;5715;48.234;14.320;2022-07-23T10:34:47;2.67;;;2.33;;
11319;SDS011;5715;48.234;14.320;2022-07-23T10:38:30;2.90;;;2.38;;
11319;SDS011;5715;48.234;14.320;2022-07-23T10:41:42;2.78;;;2.58;;
11319;SDS011;5715;48.234;14.320;2022-07-23T10:44:33;3.03;;;2.72;;
11319;SDS011;5715;48.234;14.320;2022-07-23T10:47:29;2.88;;;2.67;;
11319;SDS011;5715;48.234;14.320;2022-07-23T10:50:34;2.80;;;2.60;;
11319;SDS011;5715;48.234;14.320;2022-07-23T10:53:22;3.03;;;2.72;;
11319;SDS011;5715;48.234;14.320;2022-07-23T10:56:13;7.57;;;2.75;;
11319;SDS011;5715;48.234;14.320;2022-07-23T10:59:04;2.45;;;2.20;;
11319;SDS011;5715;48.234;14.320;2022-07-23T11:01:52;2.10;;;1.90;;
11319;SDS011;5715;48.234;14.320;2022-07-23T11:04:49;2.45;;;2.25;;
11319;SDS011;5715;48.234;14.320;2022-07-23T11:10:55;4.03;;;2.40;;
11319;SDS011;5715;48.234;14.320;2022-07-23T11:13:49;2.70;;;2.50;;
11319;SDS011;5715;48.234;14.320;2022-07-23T11:16:45;2.20;;;2.00;;
11319;SDS011;5715;48.234;14.320;2022-07-23T11:23:03;3.03;;;2.65;;
11319;SDS011;5715;48.234;14.320;2022-07-23T11:25:51;7.00;;;2.22;;
11319;SDS011;5715;48.234;14.320;2022-07-23T11:28:38;2.60;;;2.40;;
11319;SDS011;5715;48.234;14.320;2022-07-23T11:31:26;4.47;;;2.63;;
11319;SDS011;5715;48.234;14.320;2022-07-23T11:37:32;2.97;;;2.10;;
11319;SDS011;5715;48.234;14.320;2022-07-23T11:40:26;2.70;;;2.50;;
11319;SDS011;5715;48.234;14.320;2022-07-23T11:43:14;2.80;;;2.58;;
11319;SDS011;5715;48.234;14.320;2022-07-23T11:46:02;2.80;;;2.60;;
11319;SDS011;5715;48.234;14.320;2022-07-23T11:49:00;4.32;;;3.05;;
11319;SDS011;5715;48.234;14.320;2022-07-23T11:52:11;6.80;;;2.88;;
11319;SDS011;5715;48.234;14.320;2022-07-23T11:55:01;3.63;;;3.15;;
11319;SDS011;5715;48.234;14.320;2022-07-23T11:57:57;3.20;;;2.90;;
11319;SDS011;5715;48.234;14.320;2022-07-23T12:00:46;2.55;;;2.13;;
11319;SDS011;5715;48.234;14.320;2022-07-23T12:03:34;3.75;;;2.80;;
11319;SDS011;5715;48.234;14.320;2022-07-23T12:06:22;2.92;;;2.72;;
11319;SDS011;5715;48.234;14.320;2022-07-23T12:09:10;3.42;;;2.88;;
11319;SDS011;5715;48.234;14.320;2022-07-23T12:12:00;3.17;;;2.92;;
11319;SDS011;5715;48.234;14.320;2022-07-23T12:14:52;3.00;;;2.72;;
11319;SDS011;5715;48.234;14.320;2022-07-23T12:17:46;3.05;;;2.70;;
11319;SDS011;5715;48.234;14.320;2022-07-23T12:20:39;3.30;;;2.80;;
11319;SDS011;5715;48.234;14.320;2022-07-23T12:23:30;5.97;;;2.67;;
11319;SDS011;5715;48.234;14.320;2022-07-23T12:26:17;2.65;;;2.40;;
11319;SDS011;5715;48.234;14.320;2022-07-23T12:29:05;4.55;;;3.17;;
11319;SDS011;5715;48.234;14.320;2022-07-23T12:31:52;3.30;;;3.00;;
11319;SDS011;5715;48.234;14.320;2022-07-23T12:34:40;3.28;;;2.80;;
11319;SDS011;5715;48.234;14.320;2022-07-23T12:37:36;4.60;;;3.55;;
11319;SDS011;5715;48.234;14.320;2022-07-23T12:40:31;4.70;;;2.72;;
11319;SDS011;5715;48.234;14.320;2022-07-23T12:46:22;3.42;;;3.10;;
11319;SDS011;5715;48.234;14.320;2022-07-23T12:49:10;2.88;;;2.67;;
11319;SDS011;5715;48.234;14.320;2022-07-23T12:52:16;3.13;;;2.85;;
11319;SDS011;5715;48.234;14.320;2022-07-23T12:55:05;2.97;;;2.65;;
11319;SDS011;5715;48.234;14.320;2022-07-23T12:58:18;5.05;;;3.10;;
11319;SDS011;5715;48.234;14.320;2022-07-23T13:01:09;3.70;;;2.70;;
11319;SDS011;5715;48.234;14.320;2022-07-23T13:04:10;3.17;;;2.88;;
11319;SDS011;5715;48.234;14.320;2022-07-23T13:07:00;2.83;;;2.63;;
11319;SDS011;5715;48.234;14.320;2022-07-23T13:09:50;3.15;;;2.75;;
11319;SDS011;5715;48.234;14.320;2022-07-23T13:12:38;3.33;;;3.08;;
11319;SDS011;5715;48.234;14.320;2022-07-23T13:15:25;3.50;;;3.20;;
11319;SDS011;5715;48.234;14.320;2022-07-23T13:18:13;3.08;;;2.67;;
11319;SDS011;5715;48.234;14.320;2022-07-23T13:21:01;3.17;;;2.92;;
11319;SDS011;5715;48.234;14.320;2022-07-23T13:23:49;3.85;;;3.40;;
11319;SDS011;5715;48.234;14.320;2022-07-23T13:26:38;5.63;;;2.70;;
11319;SDS011;5715;48.234;14.320;2022-07-23T13:29:26;3.30;;;2.75;;
11319;SDS011;5715;48.234;14.320;2022-07-23T13:32:14;3.08;;;2.88;;
11319;SDS011;5715;48.234;14.320;2022-07-23T13:35:01;3.20;;;2.90;;
11319;SDS011;5715;48.234;14.320;2022-07-23T13:37:49;4.85;;;2.83;;
11319;SDS011;5715;48.234;14.320;2022-07-23T13:40:38;2.95;;;2.75;;
11319;SDS011;5715;48.234;14.320;2022-07-23T13:43:29;8.27;;;2.97;;
11319;SDS011;5715;48.234;14.320;2022-07-23T13:46:22;3.15;;;2.83;;
11319;SDS011;5715;48.234;14.320;2022-07-23T13:49:10;3.40;;;3.10;;
11319;SDS011;5715;48.234;14.320;2022-07-23T13:51:59;5.13;;;2.97;;
11319;SDS011;5715;48.234;14.320;2022-07-23T13:54:47;3.42;;;3.00;;
11319;SDS011;5715;48.234;14.320;2022-07-23T13:57:35;3.63;;;3.10;;
11319;SDS011;5715;48.234;14.320;2022-07-23T14:00:22;3.58;;;2.90;;
11319;SDS011;5715;48.234;14.320;2022-07-23T14:03:30;3.13;;;2.83;;
11319;SDS011;5715;48.234;14.320;2022-07-23T14:06:19;4.95;;;3.38;;
11319;SDS011;5715;48.234;14.320;2022-07-23T14:09:19;3.03;;;2.80;;
11319;SDS011;5715;48.234;14.320;2022-07-23T14:12:06;3.25;;;2.95;;
11319;SDS011;5715;48.234;14.320;2022-07-23T14:14:57;3.00;;;2.80;;
11319;SDS011;5715;48.234;14.320;2022-07-23T14:17:45;5.85;;;3.30;;
11319;SDS011;5715;48.234;14.320;2022-07-23T14:20:34;3.78;;;3.03;;
11319;SDS011;5715;48.234;14.320;2022-07-23T14:23:22;3.92;;;3.53;;
11319;SDS011;5715;48.234;14.320;2022-07-23T14:26:10;5.47;;;3.42;;
11319;SDS011;5715;48.234;14.320;2022-07-23T14:29:01;3.67;;;3.38;;
11319;SDS011;5715;48.234;14.320;2022-07-23T14:31:50;3.92;;;3.53;;
11319;SDS011;5715;48.234;14.320;2022-07-23T14:34:40;3.20;;;2.90;;
11319;SDS011;5715;48.234;14.320;2022-07-23T14:37:27;3.33;;;3.03;;
11319;SDS011;5715;48.234;14.320;2022-07-23T14:40:17;2.95;;;2.70;;
11319;SDS011;5715;48.234;14.320;2022-07-23T14:43:05;3.13;;;2.88;;
11319;SDS011;5715;48.234;14.320;2022-07-23T14:45:56;3.40;;;3.10;;
11319;SDS011;5715;48.234;14.320;2022-07-23T14:48:44;3.75;;;3.10;;
11319;SDS011;5715;48.234;14.320;2022-07-23T14:51:31;3.95;;;3.13;;
11319;SDS011;5715;48.234;14.320;2022-07-23T14:54:19;3.60;;;3.30;;
11319;SDS011;5715;48.234;14.320;2022-07-23T14:57:07;5.05;;;3.33;;
11319;SDS011;5715;48.234;14.320;2022-07-23T14:59:56;4.35;;;3.40;;
11319;SDS011;5715;48.234;14.320;2022-07-23T15:02:44;3.55;;;3.20;;
11319;SDS011;5715;48.234;14.320;2022-07-23T15:05:40;3.50;;;3.20;;
11319;SDS011;5715;48.234;14.320;2022-07-23T15:08:28;3.45;;;3.10;;
11319;SDS011;5715;48.234;14.320;2022-07-23T15:11:15;3.08;;;2.78;;
11319;SDS011;5715;48.234;14.320;2022-07-23T15:14:03;2.92;;;2.42;;
11319;SDS011;5715;48.234;14.320;2022-07-23T15:16:51;8.13;;;3.13;;
11319;SDS011;5715;48.234;14.320;2022-07-23T15:19:39;5.25;;;2.70;;
11319;SDS011;5715;48.234;14.320;2022-07-23T15:22:27;6.47;;;2.95;;
11319;SDS011;5715;48.234;14.320;2022-07-23T15:25:14;3.38;;;3.08;;
11319;SDS011;5715;48.234;14.320;2022-07-23T15:28:03;3.33;;;2.92;;
11319;SDS011;5715;48.234;14.320;2022-07-23T15:30:54;3.33;;;3.03;;
11319;SDS011;5715;48.234;14.320;2022-07-23T15:33:42;3.53;;;3.22;;
11319;SDS011;5715;48.234;14.320;2022-07-23T15:36:29;6.13;;;3.30;;
11319;SDS011;5715;48.234;14.320;2022-07-23T15:39:17;3.35;;;3.05;;
11319;SDS011;5715;48.234;14.320;2022-07-23T15:42:05;3.90;;;3.53;;
11319;SDS011;5715;48.234;14.320;2022-07-23T15:45:00;3.50;;;3.15;;
11319;SDS011;5715;48.234;14.320;2022-07-23T15:47:51;4.47;;;3.25;;
11319;SDS011;5715;48.234;14.320;2022-07-23T15:50:39;3.97;;;3.67;;
11319;SDS011;5715;48.234;14.320;2022-07-23T15:53:32;3.45;;;3.15;;
11319;SDS011;5715;48.234;14.320;2022-07-23T15:56:22;3.75;;;3.45;;
11319;SDS011;5715;48.234;14.320;2022-07-23T15:59:10;4.20;;;3.58;;
11319;SDS011;5715;48.234;14.320;2022-07-23T16:01:57;6.72;;;3.50;;
11319;SDS011;5715;48.234;14.320;2022-07-23T16:04:45;3.42;;;3.13;;
11319;SDS011;5715;48.234;14.320;2022-07-23T16:07:33;3.85;;;3.55;;
11319;SDS011;5715;48.234;14.320;2022-07-23T16:10:24;3.45;;;3.15;;
11319;SDS011;5715;48.234;14.320;2022-07-23T16:13:11;3.90;;;3.60;;
11319;SDS011;5715;48.234;14.320;2022-07-23T16:16:00;3.42;;;3.13;;
11319;SDS011;5715;48.234;14.320;2022-07-23T16:18:48;8.25;;;3.40;;
11319;SDS011;5715;48.234;14.320;2022-07-23T16:21:38;4.15;;;3.60;;
11319;SDS011;5715;48.234;14.320;2022-07-23T16:24:26;3.00;;;2.70;;
11319;SDS011;5715;48.234;14.320;2022-07-23T16:27:13;4.88;;;3.60;;
11319;SDS011;5715;48.234;14.320;2022-07-23T16:30:01;3.47;;;3.17;;
11319;SDS011;5715;48.234;14.320;2022-07-23T16:32:51;3.78;;;3.47;;
11319;SDS011;5715;48.234;14.320;2022-07-23T16:35:38;3.17;;;2.97;;
11319;SDS011;5715;48.234;14.320;2022-07-23T16:38:26;4.97;;;3.63;;
11319;SDS011;5715;48.234;14.320;2022-07-23T16:41:14;3.63;;;3.33;;
11319;SDS011;5715;48.234;14.320;2022-07-23T16:44:01;4.18;;;3.40;;
11319;SDS011;5715;48.234;14.320;2022-07-23T16:46:50;3.05;;;2.85;;
11319;SDS011;5715;48.234;14.320;2022-07-23T16:49:37;4.03;;;3.65;;
11319;SDS011;5715;48.234;14.320;2022-07-23T16:52:25;4.47;;;3.13;;
11319;SDS011;5715;48.234;14.320;2022-07-23T16:55:12;3.55;;;3.25;;
11319;SDS011;5715;48.234;14.320;2022-07-23T16:58:00;3.55;;;3.25;;
11319;SDS011;5715;48.234;14.320;2022-07-23T17:00:48;9.38;;;3.75;;
11319;SDS011;5715;48.234;14.320;2022-07-23T17:03:35;3.95;;;3.47;;
11319;SDS011;5715;48.234;14.320;2022-07-23T17:06:23;5.55;;;3.17;;
11319;SDS011;5715;48.234;14.320;2022-07-23T17:09:11;3.63;;;3.33;;
11319;SDS011;5715;48.234;14.320;2022-07-23T17:12:00;3.80;;;3.15;;
11319;SDS011;5715;48.234;14.320;2022-07-23T17:14:49;4.35;;;3.22;;
11319;SDS011;5715;48.234;14.320;2022-07-23T17:17:36;3.10;;;2.80;;
11319;SDS011;5715;48.234;14.320;2022-07-23T17:20:25;6.65;;;3.50;;
11319;SDS011;5715;48.234;14.320;2022-07-23T17:23:12;5.85;;;2.45;;
11319;SDS011;5715;48.234;14.320;2022-07-23T17:26:00;4.95;;;3.30;;